Nearby METAR Reports

 

YSRI - Richmond (aus-Af, Australia
Distance from station: WSW 35km
Updated: 27/02/2024 08:00
Overcast
Overcast
 Wind from SW
Wind: SW 9 km/h
Temperature: 21°C
Dew Point: 19°C
Humidity: 88%
Barometer: 1019 hPa
Clouds: Overcast
Visibility: 10 km
Cloud details: Partly cloudy 1067 m
Overcast 1372 m
2024/02/26 21:00 YSRI 262100Z AUTO 22005KT 9999 // SCT035 OVC045 21/19 Q1019
YSSY - Sydney Intl Airp, Australia
Distance from station: S 47km
Updated: 27/02/2024 08:00
Light drizzle, Mostly cloudy
Light drizzle, Mostly cloudy
 Wind from ESE
Wind: ESE 15 km/h
Temperature: 23°C
Dew Point: 17°C
Humidity: 69%
Barometer: 1019 hPa
Summary: Light Drizzle
Clouds: Mostly cloudy
Visibility: 10 km
Cloud details: Partly cloudy 762 m
Mostly cloudy 914 m
2024/02/26 21:00 YSSY 262100Z 11008KT 9999 -DZ SCT025 BKN030 23/17 Q1019 RF00.0/000.0
 
YWLM - Williamtown Arp, Australia
Distance from station: NE 104km
Updated: 27/02/2024 08:00
Mostly cloudy
Mostly cloudy
 Wind from calm
Wind: Calm
Temperature: 22°C
Dew Point: 21°C
Humidity: 94%
Barometer: 1017 hPa
Clouds: Mostly cloudy
Visibility: 10 km
Cloud details: Few Clouds 610 m
Mostly cloudy 1433 m
2024/02/26 21:00 YWLM 262100Z 00000KT 9999 FEW020 BKN047 22/21 Q1017 RF00.0/002.8 DISTANT SHRA SE TO SW.
YSNW - Nowra (aus-Navy), Australia
Distance from station: SSW 168km
Updated: 16/11/2022 13:33
NOT Current
Light rain, Showers, Mostly cloudy
Light rain, Showers, Mostly cloudy
 Wind from S
Wind: S 28 km/h, Gust: 50 km/h
Temperature: 10°C
Wind Chill: 7°C
Dew Point: 8°C
Humidity: 88%
Barometer: 1010 hPa
Summary: Light rain, Showers
Clouds: Mostly cloudy
Visibility: 10 km
Cloud details: Partly cloudy 610 m
Mostly cloudy 1463 m
Mostly cloudy 1768 m
2022/11/16 02:33 YSNW 160233Z AUTO 17015G27KT 9999 -SHRA SCT020 BKN048 BKN058 10/08 Q1010
 
YMDG - Mudgee Arpt, Australia
Distance from station: NW 177km
Updated: 16/11/2022 13:34
NOT Current
Overcast
Overcast
 Wind from SW
Wind: SW 31 km/h, Gust: 50 km/h
Temperature: 14°C
Dew Point: 4°C
Humidity: 51%
Barometer: 1011 hPa
Clouds: Overcast
Visibility: 10 km
Cloud details: Partly cloudy 1615 m
Mostly cloudy 2012 m
Overcast 2469 m
2022/11/16 02:34 YMDG 160234Z AUTO 23017G27KT 9999 // SCT053 BKN066 OVC081 14/04 Q1011
YTRE - Taree Airport, Australia
Distance from station: NE 224km
Updated: 14/11/2022 20:56
NOT Current
Clear
Clear
 Wind from S
Wind: S 9 km/h
Temperature: 20°C
Dew Point: 20°C
Humidity: 100%
Barometer: 1005 hPa
Clouds: Clear
Visibility: 10 km
2022/11/14 09:56 YTRE 140956Z AUTO 18005KT 130V260 9999 // NCD 20/20 Q1005
 
YSCB - Canberra (civ/Mi, Australia
Distance from station: SW 265km
Updated: 27/02/2024 08:00
Overcast
Overcast
 Wind from SE
Wind: SE 4 km/h
Temperature: 16°C
Dew Point: 13°C
Humidity: 83%
Barometer: 1020 hPa
Clouds: Overcast
Visibility: 10 km
Cloud details: Overcast 457 m
2024/02/26 21:00 YSCB 262100Z AUTO 13002KT 9999 // OVC015 16/13 Q1020 RF00.0/000.0
YSTW - Tamworth Airport, Australia
Distance from station: N 275km
Updated: 27/02/2024 08:00
Overcast
Overcast
 Wind from E
Wind: E 13 km/h
Temperature: 24°C
Dew Point: 16°C
Humidity: 61%
Barometer: 1018 hPa
Clouds: Overcast
Visibility: 10 km
Cloud details: Overcast 1829 m
Overcast 2073 m
2024/02/26 21:00 YSTW 262100Z AUTO 10007KT 9999 // OVC060 OVC068 24/16 Q1018
 
YSDU - Dubbo, Australia
Distance from station: WNW 280km
Updated: 27/02/2024 08:00
Clear
Clear
 Wind from E
Wind: E 30 km/h
Temperature: 23°C
Dew Point: 18°C
Humidity: 74%
Barometer: 1016 hPa
Clouds: Clear
Visibility: 10 km
2024/02/26 21:00 YSDU 262100Z AUTO 08016KT 9999 // NCD 23/18 Q1016 RF00.0/000.0
YPMQ - Port Macquarie, Australia
Distance from station: NE 284km
Updated: 14/11/2022 15:00
NOT Current
Partly cloudy
Partly cloudy
 Wind from WNW
Wind: WNW 31 km/h, Gust: 54 km/h
Temperature: 31°C
Heat Index: 31°C
Dew Point: 16°C
Humidity: 40%
Barometer: 1001 hPa
Clouds: Partly cloudy
Visibility: 10 km
Cloud details: Partly cloudy 2377 m
2022/11/14 04:00 YPMQ 140400Z AUTO 29017G29KT 9999 // SCT078 31/16 Q1001
 
YCBB - Coonabarabran, Australia
Distance from station: NW 300km
Updated: 16/11/2022 12:30
NOT Current
Overcast
Overcast
 Wind from SW
Wind: SW 28 km/h, Gust: 48 km/h
Temperature: 13°C
Dew Point: 1°C
Humidity: 44%
Barometer: 1012 hPa
Clouds: Overcast
Visibility: 10 km
Cloud details: Overcast 1676 m
2022/11/16 01:30 YCBB 160130Z AUTO 23015G26KT 9999 // OVC055 13/01 Q1012